Arabi, Georgia
Current Conditions -  °F | °C
As of 6:15 PM on Thursday 27 Nov 2014 (Local Time) from KCKF Reporting Station
Clear Clear  
Wind Chill:   Ceiling: Unl
Heat Index:   Visibility: 10mi
Dew Point: -1°   Wind: 8mph
Humidity: 49%   Direction: 330°NNW
Pressure: 30.33"   Gusts: NA
Location:  31.83°N, 83.74°W
Report Text: KCKF 272315Z AUTO 33007KT 10SM CLR 09/M01 A3033 RMK AO2 T00921010
Loading
Personal Weather Stations






























Interactive Weather Map New forecast layout! Learn more

10-Day Weather Forecast

Advertisements
Track Severe Weather on mobile